sensor_id;sensor_type;location;lat;lon;timestamp;temperature;humidity
34829;DHT22;21042;47.620;12.188;2024-01-07T00:00:55;1.60;99.90
34829;DHT22;21042;47.620;12.188;2024-01-07T00:03:22;1.60;99.90
34829;DHT22;21042;47.620;12.188;2024-01-07T00:05:49;1.60;99.90
34829;DHT22;21042;47.620;12.188;2024-01-07T00:08:16;1.60;99.90
34829;DHT22;21042;47.620;12.188;2024-01-07T00:10:43;1.50;99.90
34829;DHT22;21042;47.620;12.188;2024-01-07T00:13:09;1.40;99.90
34829;DHT22;21042;47.620;12.188;2024-01-07T00:15:36;1.50;99.90
34829;DHT22;21042;47.620;12.188;2024-01-07T00:18:03;1.50;99.90
34829;DHT22;21042;47.620;12.188;2024-01-07T00:20:30;1.50;99.90
34829;DHT22;21042;47.620;12.188;2024-01-07T00:22:57;1.50;99.90
34829;DHT22;21042;47.620;12.188;2024-01-07T00:25:24;1.60;99.90
34829;DHT22;21042;47.620;12.188;2024-01-07T00:27:51;1.60;99.90
34829;DHT22;21042;47.620;12.188;2024-01-07T00:30:18;1.60;99.90
34829;DHT22;21042;47.620;12.188;2024-01-07T00:32:46;1.60;99.90
34829;DHT22;21042;47.620;12.188;2024-01-07T00:35:13;1.50;99.90
34829;DHT22;21042;47.620;12.188;2024-01-07T00:37:40;1.60;99.90
34829;DHT22;21042;47.620;12.188;2024-01-07T00:40:07;1.50;99.90
34829;DHT22;21042;47.620;12.188;2024-01-07T00:42:34;1.60;99.90
34829;DHT22;21042;47.620;12.188;2024-01-07T00:45:01;1.60;99.90
34829;DHT22;21042;47.620;12.188;2024-01-07T00:47:27;1.60;99.90
34829;DHT22;21042;47.620;12.188;2024-01-07T00:49:55;1.60;99.90
34829;DHT22;21042;47.620;12.188;2024-01-07T00:52:22;1.60;99.90
34829;DHT22;21042;47.620;12.188;2024-01-07T00:54:49;1.60;99.90
34829;DHT22;21042;47.620;12.188;2024-01-07T00:57:17;1.60;99.90
34829;DHT22;21042;47.620;12.188;2024-01-07T00:59:44;1.60;99.90
34829;DHT22;21042;47.620;12.188;2024-01-07T01:02:11;1.50;99.90
34829;DHT22;21042;47.620;12.188;2024-01-07T01:04:39;1.50;99.90
34829;DHT22;21042;47.620;12.188;2024-01-07T01:07:07;1.50;99.90
34829;DHT22;21042;47.620;12.188;2024-01-07T01:09:34;1.50;99.90
34829;DHT22;21042;47.620;12.188;2024-01-07T01:12:01;1.50;99.90
34829;DHT22;21042;47.620;12.188;2024-01-07T01:14:28;1.50;99.90
34829;DHT22;21042;47.620;12.188;2024-01-07T01:16:55;1.40;99.90
34829;DHT22;21042;47.620;12.188;2024-01-07T01:19:21;1.40;99.90
34829;DHT22;21042;47.620;12.188;2024-01-07T01:21:48;1.50;99.90
34829;DHT22;21042;47.620;12.188;2024-01-07T01:24:15;1.50;99.90
34829;DHT22;21042;47.620;12.188;2024-01-07T01:26:42;1.50;99.90
34829;DHT22;21042;47.620;12.188;2024-01-07T01:29:09;1.50;99.90
34829;DHT22;21042;47.620;12.188;2024-01-07T01:31:36;1.50;99.90
34829;DHT22;21042;47.620;12.188;2024-01-07T01:34:03;1.50;99.90
34829;DHT22;21042;47.620;12.188;2024-01-07T01:36:33;1.50;99.90
34829;DHT22;21042;47.620;12.188;2024-01-07T01:39:00;1.50;99.90
34829;DHT22;21042;47.620;12.188;2024-01-07T01:41:28;1.50;99.90
34829;DHT22;21042;47.620;12.188;2024-01-07T01:43:58;1.50;99.90
34829;DHT22;21042;47.620;12.188;2024-01-07T01:46:25;1.50;99.90
34829;DHT22;21042;47.620;12.188;2024-01-07T01:48:52;1.50;99.90
34829;DHT22;21042;47.620;12.188;2024-01-07T01:51:19;1.50;99.90
34829;DHT22;21042;47.620;12.188;2024-01-07T01:53:48;1.50;99.90
34829;DHT22;21042;47.620;12.188;2024-01-07T01:56:17;1.50;99.90
34829;DHT22;21042;47.620;12.188;2024-01-07T01:58:44;1.50;99.90
34829;DHT22;21042;47.620;12.188;2024-01-07T02:01:12;1.50;99.90
34829;DHT22;21042;47.620;12.188;2024-01-07T02:03:39;1.50;99.90
34829;DHT22;21042;47.620;12.188;2024-01-07T02:06:06;1.60;99.90
34829;DHT22;21042;47.620;12.188;2024-01-07T02:08:33;1.60;99.90
34829;DHT22;21042;47.620;12.188;2024-01-07T02:11:17;1.60;99.90
34829;DHT22;21042;47.620;12.188;2024-01-07T02:13:44;1.60;99.90
34829;DHT22;21042;47.620;12.188;2024-01-07T02:16:12;1.50;99.90
34829;DHT22;21042;47.620;12.188;2024-01-07T02:18:44;1.50;99.90
34829;DHT22;21042;47.620;12.188;2024-01-07T02:21:13;1.60;99.90
34829;DHT22;21042;47.620;12.188;2024-01-07T02:23:40;1.60;99.90
34829;DHT22;21042;47.620;12.188;2024-01-07T02:26:07;1.60;99.90
34829;DHT22;21042;47.620;12.188;2024-01-07T02:28:34;1.50;99.90
34829;DHT22;21042;47.620;12.188;2024-01-07T02:31:01;1.50;99.90
34829;DHT22;21042;47.620;12.188;2024-01-07T02:33:28;1.50;99.90
34829;DHT22;21042;47.620;12.188;2024-01-07T02:35:56;1.50;99.90
34829;DHT22;21042;47.620;12.188;2024-01-07T02:38:23;1.60;99.90
34829;DHT22;21042;47.620;12.188;2024-01-07T02:40:50;1.50;99.90
34829;DHT22;21042;47.620;12.188;2024-01-07T02:43:16;1.50;99.90
34829;DHT22;21042;47.620;12.188;2024-01-07T02:45:43;1.50;99.90
34829;DHT22;21042;47.620;12.188;2024-01-07T02:48:10;1.50;99.90
34829;DHT22;21042;47.620;12.188;2024-01-07T02:50:37;1.50;99.90
34829;DHT22;21042;47.620;12.188;2024-01-07T02:53:04;1.50;99.90
34829;DHT22;21042;47.620;12.188;2024-01-07T02:55:30;1.50;99.90
34829;DHT22;21042;47.620;12.188;2024-01-07T02:57:57;1.50;99.90
34829;DHT22;21042;47.620;12.188;2024-01-07T03:00:24;1.50;99.90
34829;DHT22;21042;47.620;12.188;2024-01-07T03:02:51;1.60;99.90
34829;DHT22;21042;47.620;12.188;2024-01-07T03:09:19;1.50;99.90
34829;DHT22;21042;47.620;12.188;2024-01-07T03:11:46;1.50;99.90
34829;DHT22;21042;47.620;12.188;2024-01-07T03:14:12;1.50;99.90
34829;DHT22;21042;47.620;12.188;2024-01-07T03:16:39;1.50;99.90
34829;DHT22;21042;47.620;12.188;2024-01-07T03:19:06;1.50;99.90
34829;DHT22;21042;47.620;12.188;2024-01-07T03:21:33;1.40;99.90
34829;DHT22;21042;47.620;12.188;2024-01-07T03:24:00;1.40;99.90
34829;DHT22;21042;47.620;12.188;2024-01-07T03:26:29;1.40;99.90
34829;DHT22;21042;47.620;12.188;2024-01-07T03:28:57;1.40;99.90
34829;DHT22;21042;47.620;12.188;2024-01-07T03:31:26;1.40;99.90
34829;DHT22;21042;47.620;12.188;2024-01-07T03:33:53;1.40;99.90
34829;DHT22;21042;47.620;12.188;2024-01-07T03:36:21;1.50;99.90
34829;DHT22;21042;47.620;12.188;2024-01-07T03:38:47;1.50;99.90
34829;DHT22;21042;47.620;12.188;2024-01-07T03:41:18;1.50;99.90
34829;DHT22;21042;47.620;12.188;2024-01-07T03:43:48;1.50;99.90
34829;DHT22;21042;47.620;12.188;2024-01-07T03:46:16;1.50;99.90
34829;DHT22;21042;47.620;12.188;2024-01-07T03:48:43;1.40;99.90
34829;DHT22;21042;47.620;12.188;2024-01-07T03:51:11;1.40;99.90
34829;DHT22;21042;47.620;12.188;2024-01-07T03:53:37;1.50;99.90
34829;DHT22;21042;47.620;12.188;2024-01-07T03:56:04;1.50;99.90
34829;DHT22;21042;47.620;12.188;2024-01-07T03:58:32;1.50;99.90
34829;DHT22;21042;47.620;12.188;2024-01-07T04:00:59;1.60;99.90
34829;DHT22;21042;47.620;12.188;2024-01-07T04:03:26;1.60;99.90
34829;DHT22;21042;47.620;12.188;2024-01-07T04:05:53;1.60;99.90
34829;DHT22;21042;47.620;12.188;2024-01-07T04:08:19;1.50;99.90
34829;DHT22;21042;47.620;12.188;2024-01-07T04:10:46;1.50;99.90
34829;DHT22;21042;47.620;12.188;2024-01-07T04:13:13;1.50;99.90
34829;DHT22;21042;47.620;12.188;2024-01-07T04:15:40;1.50;99.90
34829;DHT22;21042;47.620;12.188;2024-01-07T04:18:07;1.50;99.90
34829;DHT22;21042;47.620;12.188;2024-01-07T04:20:34;1.50;99.90
34829;DHT22;21042;47.620;12.188;2024-01-07T04:23:00;1.50;99.90
34829;DHT22;21042;47.620;12.188;2024-01-07T04:25:27;1.40;99.90
34829;DHT22;21042;47.620;12.188;2024-01-07T04:27:54;1.40;99.90
34829;DHT22;21042;47.620;12.188;2024-01-07T04:30:21;1.40;99.90
34829;DHT22;21042;47.620;12.188;2024-01-07T04:32:48;1.50;99.90
34829;DHT22;21042;47.620;12.188;2024-01-07T04:35:14;1.50;99.90
34829;DHT22;21042;47.620;12.188;2024-01-07T04:37:41;1.50;99.90
34829;DHT22;21042;47.620;12.188;2024-01-07T04:40:09;1.50;99.90
34829;DHT22;21042;47.620;12.188;2024-01-07T04:42:36;1.50;99.90
34829;DHT22;21042;47.620;12.188;2024-01-07T04:45:03;1.60;99.90
34829;DHT22;21042;47.620;12.188;2024-01-07T04:47:32;1.60;99.90
34829;DHT22;21042;47.620;12.188;2024-01-07T04:50:03;1.60;99.90
34829;DHT22;21042;47.620;12.188;2024-01-07T04:52:30;1.60;99.90
34829;DHT22;21042;47.620;12.188;2024-01-07T04:54:57;1.60;99.90
34829;DHT22;21042;47.620;12.188;2024-01-07T04:57:24;1.60;99.90
34829;DHT22;21042;47.620;12.188;2024-01-07T04:59:51;1.60;99.90
34829;DHT22;21042;47.620;12.188;2024-01-07T05:02:19;1.50;99.90
34829;DHT22;21042;47.620;12.188;2024-01-07T05:04:45;1.50;99.90
34829;DHT22;21042;47.620;12.188;2024-01-07T05:07:12;1.50;99.90
34829;DHT22;21042;47.620;12.188;2024-01-07T05:09:39;1.50;99.90
34829;DHT22;21042;47.620;12.188;2024-01-07T05:12:06;1.50;99.90
34829;DHT22;21042;47.620;12.188;2024-01-07T05:14:33;1.50;99.90
34829;DHT22;21042;47.620;12.188;2024-01-07T05:17:00;1.50;99.90
34829;DHT22;21042;47.620;12.188;2024-01-07T05:19:27;1.60;99.90
34829;DHT22;21042;47.620;12.188;2024-01-07T05:21:54;1.50;99.90
34829;DHT22;21042;47.620;12.188;2024-01-07T05:24:21;1.60;99.90
34829;DHT22;21042;47.620;12.188;2024-01-07T05:26:47;1.50;99.90
34829;DHT22;21042;47.620;12.188;2024-01-07T05:29:14;1.50;99.90
34829;DHT22;21042;47.620;12.188;2024-01-07T05:31:41;1.50;99.90
34829;DHT22;21042;47.620;12.188;2024-01-07T05:34:08;1.50;99.90
34829;DHT22;21042;47.620;12.188;2024-01-07T05:36:35;1.50;99.90
34829;DHT22;21042;47.620;12.188;2024-01-07T05:39:03;1.50;99.90
34829;DHT22;21042;47.620;12.188;2024-01-07T05:41:29;1.50;99.90
34829;DHT22;21042;47.620;12.188;2024-01-07T05:43:56;1.50;99.90
34829;DHT22;21042;47.620;12.188;2024-01-07T05:46:23;1.50;99.90
34829;DHT22;21042;47.620;12.188;2024-01-07T05:48:50;1.50;99.90
34829;DHT22;21042;47.620;12.188;2024-01-07T05:51:17;1.50;99.90
34829;DHT22;21042;47.620;12.188;2024-01-07T05:53:45;1.50;99.90
34829;DHT22;21042;47.620;12.188;2024-01-07T05:56:12;1.50;99.90
34829;DHT22;21042;47.620;12.188;2024-01-07T05:58:39;1.40;99.90
34829;DHT22;21042;47.620;12.188;2024-01-07T06:01:07;1.40;99.90
34829;DHT22;21042;47.620;12.188;2024-01-07T06:03:35;1.40;99.90
34829;DHT22;21042;47.620;12.188;2024-01-07T06:06:03;1.40;99.90
34829;DHT22;21042;47.620;12.188;2024-01-07T06:08:29;1.40;99.90
34829;DHT22;21042;47.620;12.188;2024-01-07T06:10:56;1.40;99.90
34829;DHT22;21042;47.620;12.188;2024-01-07T06:13:23;1.40;99.90
34829;DHT22;21042;47.620;12.188;2024-01-07T06:15:50;1.40;99.90
34829;DHT22;21042;47.620;12.188;2024-01-07T06:18:17;1.40;99.90
34829;DHT22;21042;47.620;12.188;2024-01-07T06:20:44;1.50;99.90
34829;DHT22;21042;47.620;12.188;2024-01-07T06:23:11;1.50;99.90
34829;DHT22;21042;47.620;12.188;2024-01-07T06:25:38;1.50;99.90
34829;DHT22;21042;47.620;12.188;2024-01-07T06:28:06;1.50;99.90
34829;DHT22;21042;47.620;12.188;2024-01-07T06:30:33;1.50;99.90
34829;DHT22;21042;47.620;12.188;2024-01-07T06:33:00;1.50;99.90
34829;DHT22;21042;47.620;12.188;2024-01-07T06:35:27;1.50;99.90
34829;DHT22;21042;47.620;12.188;2024-01-07T06:37:54;1.50;99.90
34829;DHT22;21042;47.620;12.188;2024-01-07T06:40:21;1.50;99.90
34829;DHT22;21042;47.620;12.188;2024-01-07T06:42:49;1.40;99.90
34829;DHT22;21042;47.620;12.188;2024-01-07T06:45:16;1.50;99.90
34829;DHT22;21042;47.620;12.188;2024-01-07T06:47:43;1.40;99.90
34829;DHT22;21042;47.620;12.188;2024-01-07T06:50:10;1.50;99.90
34829;DHT22;21042;47.620;12.188;2024-01-07T06:52:37;1.50;99.90
34829;DHT22;21042;47.620;12.188;2024-01-07T06:55:04;1.50;99.90
34829;DHT22;21042;47.620;12.188;2024-01-07T06:57:31;1.50;99.90
34829;DHT22;21042;47.620;12.188;2024-01-07T06:59:58;1.50;99.90
34829;DHT22;21042;47.620;12.188;2024-01-07T07:02:25;1.50;99.90
34829;DHT22;21042;47.620;12.188;2024-01-07T07:04:52;1.50;99.90
34829;DHT22;21042;47.620;12.188;2024-01-07T07:07:19;1.50;99.90
34829;DHT22;21042;47.620;12.188;2024-01-07T07:09:45;1.40;99.90
34829;DHT22;21042;47.620;12.188;2024-01-07T07:12:13;1.50;99.90
34829;DHT22;21042;47.620;12.188;2024-01-07T07:14:39;1.40;99.90
34829;DHT22;21042;47.620;12.188;2024-01-07T07:17:06;1.40;99.90
34829;DHT22;21042;47.620;12.188;2024-01-07T07:19:33;1.40;99.90
34829;DHT22;21042;47.620;12.188;2024-01-07T07:22:00;1.40;99.90
34829;DHT22;21042;47.620;12.188;2024-01-07T07:24:27;1.50;99.90
34829;DHT22;21042;47.620;12.188;2024-01-07T07:26:54;1.50;99.90
34829;DHT22;21042;47.620;12.188;2024-01-07T07:29:21;1.50;99.90
34829;DHT22;21042;47.620;12.188;2024-01-07T07:31:48;1.50;99.90
34829;DHT22;21042;47.620;12.188;2024-01-07T07:34:15;1.50;99.90
34829;DHT22;21042;47.620;12.188;2024-01-07T07:36:42;1.50;99.90
34829;DHT22;21042;47.620;12.188;2024-01-07T07:39:11;1.50;99.90
34829;DHT22;21042;47.620;12.188;2024-01-07T07:41:40;1.40;99.90
34829;DHT22;21042;47.620;12.188;2024-01-07T07:44:07;1.50;99.90
34829;DHT22;21042;47.620;12.188;2024-01-07T07:46:34;1.40;99.90
34829;DHT22;21042;47.620;12.188;2024-01-07T07:49:01;1.40;99.90
34829;DHT22;21042;47.620;12.188;2024-01-07T07:51:28;1.40;99.90
34829;DHT22;21042;47.620;12.188;2024-01-07T07:53:55;1.40;99.90
34829;DHT22;21042;47.620;12.188;2024-01-07T07:56:22;1.50;99.90
34829;DHT22;21042;47.620;12.188;2024-01-07T07:58:48;1.50;99.90
34829;DHT22;21042;47.620;12.188;2024-01-07T08:01:17;1.50;99.90
34829;DHT22;21042;47.620;12.188;2024-01-07T08:03:45;1.50;99.90
34829;DHT22;21042;47.620;12.188;2024-01-07T08:06:12;1.50;99.90
34829;DHT22;21042;47.620;12.188;2024-01-07T08:08:39;1.50;99.90
34829;DHT22;21042;47.620;12.188;2024-01-07T08:11:06;1.50;99.90
34829;DHT22;21042;47.620;12.188;2024-01-07T08:13:36;1.60;99.90
34829;DHT22;21042;47.620;12.188;2024-01-07T08:16:04;1.60;99.90
34829;DHT22;21042;47.620;12.188;2024-01-07T08:18:32;1.60;99.90
34829;DHT22;21042;47.620;12.188;2024-01-07T08:20:59;1.60;99.90
34829;DHT22;21042;47.620;12.188;2024-01-07T08:23:27;1.50;99.90
34829;DHT22;21042;47.620;12.188;2024-01-07T08:25:54;1.50;99.90
34829;DHT22;21042;47.620;12.188;2024-01-07T08:28:20;1.50;99.90
34829;DHT22;21042;47.620;12.188;2024-01-07T08:30:48;1.50;99.90
34829;DHT22;21042;47.620;12.188;2024-01-07T08:33:16;1.50;99.90
34829;DHT22;21042;47.620;12.188;2024-01-07T08:35:43;1.50;99.90
34829;DHT22;21042;47.620;12.188;2024-01-07T08:38:10;1.50;99.90
34829;DHT22;21042;47.620;12.188;2024-01-07T08:40:37;1.50;99.90
34829;DHT22;21042;47.620;12.188;2024-01-07T08:43:04;1.50;99.90
34829;DHT22;21042;47.620;12.188;2024-01-07T08:45:31;1.50;99.90
34829;DHT22;21042;47.620;12.188;2024-01-07T08:47:58;1.60;99.90
34829;DHT22;21042;47.620;12.188;2024-01-07T08:50:25;1.60;99.90
34829;DHT22;21042;47.620;12.188;2024-01-07T08:52:52;1.60;99.90
34829;DHT22;21042;47.620;12.188;2024-01-07T08:55:19;1.60;99.90
34829;DHT22;21042;47.620;12.188;2024-01-07T08:57:45;1.60;99.90
34829;DHT22;21042;47.620;12.188;2024-01-07T09:00:16;1.70;99.90
34829;DHT22;21042;47.620;12.188;2024-01-07T09:02:42;1.70;99.90
34829;DHT22;21042;47.620;12.188;2024-01-07T09:05:10;1.70;99.90
34829;DHT22;21042;47.620;12.188;2024-01-07T09:07:39;1.70;99.90
34829;DHT22;21042;47.620;12.188;2024-01-07T09:10:06;1.70;99.90
34829;DHT22;21042;47.620;12.188;2024-01-07T09:12:37;1.70;99.90
34829;DHT22;21042;47.620;12.188;2024-01-07T09:15:05;1.70;99.90
34829;DHT22;21042;47.620;12.188;2024-01-07T09:17:38;1.70;99.90
34829;DHT22;21042;47.620;12.188;2024-01-07T09:20:08;1.70;99.90
34829;DHT22;21042;47.620;12.188;2024-01-07T09:22:35;1.70;99.90
34829;DHT22;21042;47.620;12.188;2024-01-07T09:25:03;1.80;99.90
34829;DHT22;21042;47.620;12.188;2024-01-07T09:27:31;1.70;99.90
34829;DHT22;21042;47.620;12.188;2024-01-07T09:29:58;1.80;99.90
34829;DHT22;21042;47.620;12.188;2024-01-07T09:32:25;1.80;99.90
34829;DHT22;21042;47.620;12.188;2024-01-07T09:34:52;1.90;99.90
34829;DHT22;21042;47.620;12.188;2024-01-07T09:37:20;1.90;99.90
34829;DHT22;21042;47.620;12.188;2024-01-07T09:39:47;1.80;99.90
34829;DHT22;21042;47.620;12.188;2024-01-07T09:42:15;1.90;99.90
34829;DHT22;21042;47.620;12.188;2024-01-07T09:44:43;1.90;99.90
34829;DHT22;21042;47.620;12.188;2024-01-07T09:47:12;1.90;99.90
34829;DHT22;21042;47.620;12.188;2024-01-07T09:49:39;1.90;99.90
34829;DHT22;21042;47.620;12.188;2024-01-07T09:52:08;1.90;99.90
34829;DHT22;21042;47.620;12.188;2024-01-07T09:54:36;1.90;99.90
34829;DHT22;21042;47.620;12.188;2024-01-07T09:57:06;1.90;99.90
34829;DHT22;21042;47.620;12.188;2024-01-07T09:59:37;1.90;99.90
34829;DHT22;21042;47.620;12.188;2024-01-07T10:02:04;1.90;99.90
34829;DHT22;21042;47.620;12.188;2024-01-07T10:04:31;1.90;99.90
34829;DHT22;21042;47.620;12.188;2024-01-07T10:06:58;1.90;99.90
34829;DHT22;21042;47.620;12.188;2024-01-07T10:09:29;2.00;99.90
34829;DHT22;21042;47.620;12.188;2024-01-07T10:11:56;2.00;99.90
34829;DHT22;21042;47.620;12.188;2024-01-07T10:14:23;2.00;99.90
34829;DHT22;21042;47.620;12.188;2024-01-07T10:16:53;2.00;99.90
34829;DHT22;21042;47.620;12.188;2024-01-07T10:19:21;2.00;99.90
34829;DHT22;21042;47.620;12.188;2024-01-07T10:22:04;2.10;99.90
34829;DHT22;21042;47.620;12.188;2024-01-07T10:24:39;2.00;99.90
34829;DHT22;21042;47.620;12.188;2024-01-07T10:27:09;2.00;99.90
34829;DHT22;21042;47.620;12.188;2024-01-07T10:29:36;2.10;99.90
34829;DHT22;21042;47.620;12.188;2024-01-07T10:32:03;2.00;99.90
34829;DHT22;21042;47.620;12.188;2024-01-07T10:34:33;2.00;99.90
34829;DHT22;21042;47.620;12.188;2024-01-07T10:37:01;2.10;99.90
34829;DHT22;21042;47.620;12.188;2024-01-07T10:39:29;2.00;99.90
34829;DHT22;21042;47.620;12.188;2024-01-07T10:41:57;2.00;99.90
34829;DHT22;21042;47.620;12.188;2024-01-07T10:44:28;2.00;99.90
34829;DHT22;21042;47.620;12.188;2024-01-07T10:46:55;2.10;99.90
34829;DHT22;21042;47.620;12.188;2024-01-07T10:49:26;2.00;99.90
34829;DHT22;21042;47.620;12.188;2024-01-07T10:52:07;2.00;99.90
34829;DHT22;21042;47.620;12.188;2024-01-07T10:54:36;2.00;99.90
34829;DHT22;21042;47.620;12.188;2024-01-07T10:57:34;2.00;99.90
34829;DHT22;21042;47.620;12.188;2024-01-07T11:00:02;1.90;99.90
34829;DHT22;21042;47.620;12.188;2024-01-07T11:05:25;1.90;99.90
34829;DHT22;21042;47.620;12.188;2024-01-07T11:08:07;2.00;99.90
34829;DHT22;21042;47.620;12.188;2024-01-07T11:10:48;2.00;99.90
34829;DHT22;21042;47.620;12.188;2024-01-07T11:13:35;2.00;99.90
34829;DHT22;21042;47.620;12.188;2024-01-07T11:16:03;2.10;99.90
34829;DHT22;21042;47.620;12.188;2024-01-07T11:18:31;2.10;99.90
34829;DHT22;21042;47.620;12.188;2024-01-07T11:21:01;2.10;99.90
34829;DHT22;21042;47.620;12.188;2024-01-07T11:23:28;2.20;99.90
34829;DHT22;21042;47.620;12.188;2024-01-07T11:25:57;2.10;99.90
34829;DHT22;21042;47.620;12.188;2024-01-07T11:31:13;2.20;99.90
34829;DHT22;21042;47.620;12.188;2024-01-07T11:33:46;2.20;99.90
34829;DHT22;21042;47.620;12.188;2024-01-07T11:36:14;2.30;99.90
34829;DHT22;21042;47.620;12.188;2024-01-07T11:38:49;2.30;99.90
34829;DHT22;21042;47.620;12.188;2024-01-07T11:41:20;2.30;99.90
34829;DHT22;21042;47.620;12.188;2024-01-07T11:43:54;2.30;99.90
34829;DHT22;21042;47.620;12.188;2024-01-07T11:46:22;2.30;99.90
34829;DHT22;21042;47.620;12.188;2024-01-07T11:48:52;2.30;99.90
34829;DHT22;21042;47.620;12.188;2024-01-07T11:51:19;2.30;99.90
34829;DHT22;21042;47.620;12.188;2024-01-07T11:53:46;2.30;99.90
34829;DHT22;21042;47.620;12.188;2024-01-07T11:56:14;2.30;99.90
34829;DHT22;21042;47.620;12.188;2024-01-07T11:58:41;2.40;99.90
34829;DHT22;21042;47.620;12.188;2024-01-07T12:01:08;2.30;99.90
34829;DHT22;21042;47.620;12.188;2024-01-07T12:03:35;2.30;99.90
34829;DHT22;21042;47.620;12.188;2024-01-07T12:06:03;2.20;99.90
34829;DHT22;21042;47.620;12.188;2024-01-07T12:08:31;2.20;99.90
34829;DHT22;21042;47.620;12.188;2024-01-07T12:10:59;2.20;99.90
34829;DHT22;21042;47.620;12.188;2024-01-07T12:13:26;2.20;99.90
34829;DHT22;21042;47.620;12.188;2024-01-07T12:15:53;2.20;99.90
34829;DHT22;21042;47.620;12.188;2024-01-07T12:18:21;2.20;99.90
34829;DHT22;21042;47.620;12.188;2024-01-07T12:20:54;2.20;99.90
34829;DHT22;21042;47.620;12.188;2024-01-07T12:23:27;2.20;99.90
34829;DHT22;21042;47.620;12.188;2024-01-07T12:25:54;2.20;99.90
34829;DHT22;21042;47.620;12.188;2024-01-07T12:28:22;2.10;99.90
34829;DHT22;21042;47.620;12.188;2024-01-07T12:30:49;2.10;99.90
34829;DHT22;21042;47.620;12.188;2024-01-07T12:33:19;2.10;99.90
34829;DHT22;21042;47.620;12.188;2024-01-07T12:35:47;2.10;99.90
34829;DHT22;21042;47.620;12.188;2024-01-07T12:38:14;2.10;99.90
34829;DHT22;21042;47.620;12.188;2024-01-07T12:40:41;2.10;99.90
34829;DHT22;21042;47.620;12.188;2024-01-07T12:43:08;2.10;99.90
34829;DHT22;21042;47.620;12.188;2024-01-07T12:45:35;2.10;99.90
34829;DHT22;21042;47.620;12.188;2024-01-07T12:48:02;2.10;99.90
34829;DHT22;21042;47.620;12.188;2024-01-07T12:50:29;2.00;99.90
34829;DHT22;21042;47.620;12.188;2024-01-07T12:52:58;1.90;99.90
34829;DHT22;21042;47.620;12.188;2024-01-07T12:55:26;1.80;99.90
34829;DHT22;21042;47.620;12.188;2024-01-07T12:57:53;1.70;99.90
34829;DHT22;21042;47.620;12.188;2024-01-07T13:00:21;1.80;99.90
34829;DHT22;21042;47.620;12.188;2024-01-07T13:02:48;1.70;99.90
34829;DHT22;21042;47.620;12.188;2024-01-07T13:05:16;1.80;99.90
34829;DHT22;21042;47.620;12.188;2024-01-07T13:07:43;1.80;99.90
34829;DHT22;21042;47.620;12.188;2024-01-07T13:10:10;1.80;99.90
34829;DHT22;21042;47.620;12.188;2024-01-07T13:12:37;1.80;99.90
34829;DHT22;21042;47.620;12.188;2024-01-07T13:15:14;1.80;99.90
34829;DHT22;21042;47.620;12.188;2024-01-07T13:17:44;1.90;99.90
34829;DHT22;21042;47.620;12.188;2024-01-07T13:20:11;1.90;99.90
34829;DHT22;21042;47.620;12.188;2024-01-07T13:22:38;2.00;99.90
34829;DHT22;21042;47.620;12.188;2024-01-07T13:25:06;2.00;99.90
34829;DHT22;21042;47.620;12.188;2024-01-07T13:27:33;2.00;99.90
34829;DHT22;21042;47.620;12.188;2024-01-07T13:30:06;2.10;99.90
34829;DHT22;21042;47.620;12.188;2024-01-07T13:32:33;2.00;99.90
34829;DHT22;21042;47.620;12.188;2024-01-07T13:35:05;2.10;99.90
34829;DHT22;21042;47.620;12.188;2024-01-07T13:37:32;2.10;99.90
34829;DHT22;21042;47.620;12.188;2024-01-07T13:39:59;2.10;99.90
34829;DHT22;21042;47.620;12.188;2024-01-07T13:42:27;2.00;99.90
34829;DHT22;21042;47.620;12.188;2024-01-07T13:44:54;2.00;99.90
34829;DHT22;21042;47.620;12.188;2024-01-07T13:47:21;1.90;99.90
34829;DHT22;21042;47.620;12.188;2024-01-07T13:49:48;1.90;99.90
34829;DHT22;21042;47.620;12.188;2024-01-07T13:52:15;1.80;99.90
34829;DHT22;21042;47.620;12.188;2024-01-07T13:54:42;1.80;99.90
34829;DHT22;21042;47.620;12.188;2024-01-07T13:57:09;1.80;99.90
34829;DHT22;21042;47.620;12.188;2024-01-07T13:59:36;1.70;99.90
34829;DHT22;21042;47.620;12.188;2024-01-07T14:02:03;1.70;99.90
34829;DHT22;21042;47.620;12.188;2024-01-07T14:04:31;1.70;99.90
34829;DHT22;21042;47.620;12.188;2024-01-07T14:06:58;1.60;99.90
34829;DHT22;21042;47.620;12.188;2024-01-07T14:09:26;1.60;99.90
34829;DHT22;21042;47.620;12.188;2024-01-07T14:11:53;1.50;99.90
34829;DHT22;21042;47.620;12.188;2024-01-07T14:14:20;1.50;99.90
34829;DHT22;21042;47.620;12.188;2024-01-07T14:16:46;1.60;99.90
34829;DHT22;21042;47.620;12.188;2024-01-07T14:19:13;1.60;99.90
34829;DHT22;21042;47.620;12.188;2024-01-07T14:21:43;1.60;99.90
34829;DHT22;21042;47.620;12.188;2024-01-07T14:24:10;1.50;99.90
34829;DHT22;21042;47.620;12.188;2024-01-07T14:26:37;1.50;99.90
34829;DHT22;21042;47.620;12.188;2024-01-07T14:29:04;1.50;99.90
34829;DHT22;21042;47.620;12.188;2024-01-07T14:31:43;1.50;99.90
34829;DHT22;21042;47.620;12.188;2024-01-07T14:34:12;1.50;99.90
34829;DHT22;21042;47.620;12.188;2024-01-07T14:36:42;1.50;99.90
34829;DHT22;21042;47.620;12.188;2024-01-07T14:39:12;1.50;99.90
34829;DHT22;21042;47.620;12.188;2024-01-07T14:41:41;1.40;99.90
34829;DHT22;21042;47.620;12.188;2024-01-07T14:44:07;1.40;99.90
34829;DHT22;21042;47.620;12.188;2024-01-07T14:46:38;1.40;99.90
34829;DHT22;21042;47.620;12.188;2024-01-07T14:49:06;1.40;99.90
34829;DHT22;21042;47.620;12.188;2024-01-07T14:51:34;1.40;99.90
34829;DHT22;21042;47.620;12.188;2024-01-07T14:54:01;1.40;99.90
34829;DHT22;21042;47.620;12.188;2024-01-07T14:56:28;1.40;99.90
34829;DHT22;21042;47.620;12.188;2024-01-07T14:58:55;1.30;99.90
34829;DHT22;21042;47.620;12.188;2024-01-07T15:01:22;1.40;99.90
34829;DHT22;21042;47.620;12.188;2024-01-07T15:03:49;1.30;99.90
34829;DHT22;21042;47.620;12.188;2024-01-07T15:06:16;1.30;99.90
34829;DHT22;21042;47.620;12.188;2024-01-07T15:08:43;1.30;99.90
34829;DHT22;21042;47.620;12.188;2024-01-07T15:11:10;1.30;99.90
34829;DHT22;21042;47.620;12.188;2024-01-07T15:13:37;1.20;99.90
34829;DHT22;21042;47.620;12.188;2024-01-07T15:16:07;1.20;99.90
34829;DHT22;21042;47.620;12.188;2024-01-07T15:18:34;1.20;99.90
34829;DHT22;21042;47.620;12.188;2024-01-07T15:21:04;1.20;99.90
34829;DHT22;21042;47.620;12.188;2024-01-07T15:23:31;1.20;99.90
34829;DHT22;21042;47.620;12.188;2024-01-07T15:25:58;1.20;99.90
34829;DHT22;21042;47.620;12.188;2024-01-07T15:28:25;1.10;99.90
34829;DHT22;21042;47.620;12.188;2024-01-07T15:30:52;1.10;99.90
34829;DHT22;21042;47.620;12.188;2024-01-07T15:33:19;1.10;99.90
34829;DHT22;21042;47.620;12.188;2024-01-07T15:35:46;1.10;99.90
34829;DHT22;21042;47.620;12.188;2024-01-07T15:38:13;1.10;99.90
34829;DHT22;21042;47.620;12.188;2024-01-07T15:40:40;1.10;99.90
34829;DHT22;21042;47.620;12.188;2024-01-07T15:43:07;1.20;99.90